createdAt,value
2019-04-30T00:00:20.877Z,33.77
2019-04-30T00:05:26.042Z,32.90
2019-04-30T00:10:36.981Z,32.60
2019-04-30T00:15:38.126Z,34.90
2019-04-30T00:20:46.978Z,34.43
2019-04-30T00:25:51.722Z,25.27
2019-04-30T00:30:57.110Z,28.27
2019-04-30T00:36:02.273Z,27.00
2019-04-30T00:41:10.145Z,30.87
2019-04-30T00:46:17.405Z,27.23
2019-04-30T00:51:21.704Z,30.40
2019-04-30T00:56:28.283Z,33.83
2019-04-30T01:01:58.893Z,31.60
2019-04-30T01:07:08.582Z,28.00
2019-04-30T01:12:17.482Z,27.33
2019-04-30T01:17:19.859Z,29.57
2019-04-30T01:22:29.232Z,29.33
2019-04-30T01:27:32.472Z,26.27
2019-04-30T01:32:39.423Z,25.13
2019-04-30T01:37:44.690Z,30.13
2019-04-30T01:42:51.616Z,26.93
2019-04-30T01:48:00.740Z,25.47
2019-04-30T01:53:04.702Z,22.80
2019-04-30T01:58:30.196Z,20.83
2019-04-30T02:03:35.713Z,22.60
2019-04-30T02:08:40.895Z,18.27
2019-04-30T02:13:45.975Z,16.80
2019-04-30T02:18:51.140Z,15.77
2019-04-30T02:23:56.297Z,15.47
2019-04-30T02:29:01.451Z,15.00
2019-04-30T02:34:22.425Z,13.63
2019-04-30T02:39:30.138Z,14.80
2019-04-30T02:44:36.497Z,17.20
2019-04-30T02:49:43.926Z,14.23
2019-04-30T02:54:50.825Z,13.63
2019-04-30T03:00:13.355Z,13.63
2019-04-30T03:05:20.262Z,11.20
2019-04-30T03:10:25.488Z,10.43
2019-04-30T03:15:30.601Z,13.10
2019-04-30T03:20:50.001Z,11.07
2019-04-30T03:25:55.160Z,13.80
2019-04-30T03:31:04.328Z,14.93
2019-04-30T03:36:11.978Z,13.00
2019-04-30T03:41:15.008Z,10.10
2019-04-30T03:46:20.175Z,11.17
2019-04-30T03:51:25.354Z,11.27
2019-04-30T03:56:31.334Z,11.07
2019-04-30T04:02:02.272Z,10.57
2019-04-30T04:07:25.553Z,8.30
2019-04-30T04:12:30.831Z,12.23
2019-04-30T04:17:36.117Z,10.70
2019-04-30T04:22:41.888Z,9.23
2019-04-30T04:27:50.582Z,10.57
2019-04-30T04:32:55.102Z,9.53
2019-04-30T04:38:00.568Z,9.30
2019-04-30T04:43:05.817Z,9.87
2019-04-30T04:48:10.996Z,10.87
2019-04-30T04:53:16.393Z,11.93
2019-04-30T04:58:21.939Z,10.83
2019-04-30T05:03:33.660Z,11.10
2019-04-30T05:08:39.621Z,13.23
2019-04-30T05:13:45.318Z,13.17
2019-04-30T05:18:50.827Z,12.17
2019-04-30T05:23:56.288Z,9.40
2019-04-30T05:29:01.470Z,12.43
2019-04-30T05:34:10.286Z,9.23
2019-04-30T05:39:15.572Z,13.57
2019-04-30T05:44:20.812Z,14.30
2019-04-30T05:49:26.400Z,9.33
2019-04-30T05:54:31.550Z,9.23
2019-04-30T05:59:38.703Z,9.90
2019-04-30T06:04:43.582Z,9.13
2019-04-30T06:10:06.933Z,10.73
2019-04-30T06:15:39.009Z,11.13
2019-04-30T06:20:44.376Z,10.70
2019-04-30T06:25:59.605Z,10.10
2019-04-30T06:30:59.468Z,8.03
2019-04-30T06:36:04.689Z,11.93
2019-04-30T06:41:10.564Z,8.20
2019-04-30T06:46:16.312Z,11.83
2019-04-30T06:51:21.728Z,10.00
2019-04-30T06:56:28.841Z,8.70
2019-04-30T07:01:33.695Z,10.27
2019-04-30T07:06:43.870Z,10.40
2019-04-30T07:11:50.452Z,11.17
2019-04-30T07:16:55.896Z,9.50
2019-04-30T07:22:01.436Z,9.27
2019-04-30T07:27:09.382Z,9.13
2019-04-30T07:32:14.644Z,7.00
2019-04-30T07:37:24.386Z,9.10
2019-04-30T07:42:29.462Z,11.03
2019-04-30T07:47:34.557Z,11.73
2019-04-30T07:52:58.119Z,10.87
2019-04-30T07:57:50.111Z,9.83
2019-04-30T08:03:01.534Z,6.93
2019-04-30T08:08:17.683Z,9.40
2019-04-30T08:13:15.639Z,8.87
2019-04-30T08:18:22.250Z,10.20
2019-04-30T08:23:34.927Z,10.50
2019-04-30T08:28:34.490Z,9.47
2019-04-30T08:33:40.299Z,7.40
2019-04-30T08:38:45.488Z,9.03
2019-04-30T08:43:50.771Z,10.17
2019-04-30T08:48:58.546Z,8.53
2019-04-30T08:54:03.643Z,6.67
2019-04-30T08:59:11.273Z,7.17
2019-04-30T09:04:16.091Z,7.97
2019-04-30T09:09:23.459Z,7.37
2019-04-30T09:14:29.718Z,7.27
2019-04-30T09:19:35.159Z,8.50
2019-04-30T09:24:40.336Z,7.27
2019-04-30T09:29:45.622Z,7.60
2019-04-30T09:34:51.149Z,8.90
2019-04-30T09:39:56.492Z,7.33
2019-04-30T09:45:01.998Z,7.93
2019-04-30T09:50:08.994Z,7.53
2019-04-30T09:55:14.697Z,8.55
2019-04-30T10:00:21.169Z,8.37
2019-04-30T10:05:26.814Z,8.48
2019-04-30T10:10:38.744Z,5.93
2019-04-30T10:16:06.275Z,6.50
2019-04-30T10:21:11.441Z,7.20
2019-04-30T10:26:17.652Z,6.42
2019-04-30T10:31:23.161Z,8.23
2019-04-30T10:36:29.599Z,5.10
2019-04-30T10:41:34.872Z,5.53
2019-04-30T10:46:41.189Z,6.33
2019-04-30T10:51:46.360Z,5.73
2019-04-30T10:56:51.601Z,4.22
2019-04-30T11:01:56.783Z,5.40
2019-04-30T11:07:02.043Z,5.62
2019-04-30T11:12:09.353Z,5.33
2019-04-30T11:17:14.670Z,5.50
2019-04-30T11:22:20.331Z,5.78
2019-04-30T11:27:26.417Z,6.33
2019-04-30T11:32:32.150Z,7.80
2019-04-30T11:37:37.452Z,6.97
2019-04-30T11:42:42.696Z,6.78
2019-04-30T11:47:53.487Z,9.20
2019-04-30T11:53:07.147Z,7.95
2019-04-30T11:58:03.900Z,7.50
2019-04-30T12:03:09.471Z,6.85
2019-04-30T12:08:19.710Z,7.10
2019-04-30T12:13:32.386Z,7.83
2019-04-30T12:18:37.645Z,8.13
2019-04-30T12:23:42.912Z,10.03
2019-04-30T12:28:48.162Z,9.00
2019-04-30T12:33:53.981Z,9.23
2019-04-30T12:38:59.238Z,10.75
2019-04-30T12:44:04.960Z,11.68
2019-04-30T12:49:12.236Z,9.58
2019-04-30T12:54:45.494Z,10.38
2019-04-30T12:59:50.573Z,10.20
2019-04-30T13:04:56.030Z,10.45
2019-04-30T13:10:02.712Z,8.88
2019-04-30T13:15:10.467Z,10.40
2019-04-30T13:20:21.004Z,10.25
2019-04-30T13:25:32.522Z,9.48
2019-04-30T13:30:31.255Z,8.75
2019-04-30T13:35:36.594Z,10.48
2019-04-30T13:40:51.476Z,8.20
2019-04-30T13:45:58.588Z,9.20
2019-04-30T13:51:04.252Z,9.38
2019-04-30T13:56:09.530Z,10.10
2019-04-30T14:01:14.806Z,11.75
2019-04-30T14:06:22.764Z,11.03
2019-04-30T14:11:28.011Z,9.35
2019-04-30T14:16:33.298Z,10.98
2019-04-30T14:21:39.199Z,9.85
2019-04-30T14:26:44.962Z,10.18
2019-04-30T14:31:50.680Z,10.18
2019-04-30T14:36:59.187Z,10.95
2019-04-30T14:42:04.591Z,10.18
2019-04-30T14:47:31.476Z,10.78
2019-04-30T14:52:45.141Z,9.98
2019-04-30T14:58:10.068Z,10.03
2019-04-30T15:03:16.670Z,11.25
2019-04-30T15:08:21.976Z,12.40
2019-04-30T15:13:29.499Z,11.40
2019-04-30T15:18:34.857Z,11.00
2019-04-30T15:23:58.690Z,13.10
2019-04-30T15:29:00.096Z,10.50
2019-04-30T15:34:11.153Z,10.60
2019-04-30T15:39:42.593Z,12.07
2019-04-30T15:44:49.696Z,9.90
2019-04-30T15:49:56.151Z,11.90
2019-04-30T15:55:01.416Z,10.58
2019-04-30T16:00:08.730Z,9.80
2019-04-30T16:05:33.013Z,11.18
2019-04-30T16:11:09.630Z,8.93
2019-04-30T16:16:13.635Z,10.15
2019-04-30T16:21:19.476Z,11.50
2019-04-30T16:26:24.704Z,10.00
2019-04-30T16:31:29.963Z,10.10
2019-04-30T16:36:35.581Z,9.33
2019-04-30T16:41:41.552Z,10.20
2019-04-30T16:46:46.809Z,8.73
2019-04-30T16:51:52.538Z,8.95
2019-04-30T16:57:04.058Z,8.70
2019-04-30T17:02:06.271Z,8.63
2019-04-30T17:07:30.975Z,8.65
2019-04-30T17:12:51.226Z,11.45
2019-04-30T17:17:55.424Z,9.30
2019-04-30T17:23:00.829Z,9.15
2019-04-30T17:28:08.774Z,12.05
2019-04-30T17:33:14.123Z,7.58
2019-04-30T17:38:19.397Z,8.08
2019-04-30T17:43:24.658Z,7.95
2019-04-30T17:48:30.983Z,8.30
2019-04-30T17:53:38.917Z,10.40
2019-04-30T17:58:44.699Z,9.43
2019-04-30T18:03:49.946Z,7.90
2019-04-30T18:08:55.309Z,6.90
2019-04-30T18:14:00.674Z,7.78
2019-04-30T18:19:18.793Z,9.53
2019-04-30T18:24:43.149Z,9.50
2019-04-30T18:29:48.494Z,8.30
2019-04-30T18:34:59.031Z,6.80
2019-04-30T18:40:04.315Z,7.62
2019-04-30T18:45:11.455Z,10.25
2019-04-30T18:50:16.988Z,9.23
2019-04-30T18:55:22.245Z,8.18
2019-04-30T19:00:39.559Z,12.43
2019-04-30T19:05:49.203Z,11.15
2019-04-30T19:11:18.680Z,8.68
2019-04-30T19:16:47.005Z,17.87
2019-04-30T19:21:52.512Z,14.43
2019-04-30T19:26:58.715Z,14.05
2019-04-30T19:32:04.558Z,12.90
2019-04-30T19:37:10.927Z,12.47
2019-04-30T19:42:18.663Z,8.78
2019-04-30T19:47:23.735Z,11.18
2019-04-30T19:52:29.887Z,11.08
2019-04-30T19:57:35.204Z,9.15
2019-04-30T20:02:40.785Z,9.75
2019-04-30T20:07:46.098Z,10.40
2019-04-30T20:12:51.726Z,12.03
2019-04-30T20:17:58.326Z,10.13
2019-04-30T20:23:05.458Z,10.32
2019-04-30T20:28:12.308Z,10.53
2019-04-30T20:33:19.064Z,13.97
2019-04-30T20:38:55.601Z,11.00
2019-04-30T20:44:01.106Z,9.70
2019-04-30T20:49:06.405Z,14.83
2019-04-30T20:54:11.667Z,17.90
2019-04-30T20:59:18.890Z,61.77
2019-04-30T21:04:24.872Z,142.28
2019-04-30T21:09:30.208Z,88.85
2019-04-30T21:14:35.816Z,72.42
2019-04-30T21:19:41.001Z,76.43
2019-04-30T21:24:46.548Z,101.57
2019-04-30T21:29:52.105Z,32.93
2019-04-30T21:35:19.111Z,39.47
2019-04-30T21:40:24.290Z,58.07
2019-04-30T21:45:31.546Z,51.23
2019-04-30T21:50:39.615Z,37.20
2019-04-30T21:55:44.658Z,31.40
2019-04-30T22:01:17.772Z,33.37
2019-04-30T22:06:23.233Z,36.00
2019-04-30T22:11:29.602Z,34.25
2019-04-30T22:16:35.186Z,32.33
2019-04-30T22:21:40.531Z,29.13
2019-04-30T22:26:45.701Z,31.17
2019-04-30T22:31:50.874Z,36.20
2019-04-30T22:36:56.301Z,38.63
2019-04-30T22:42:11.436Z,40.37
2019-04-30T22:47:17.435Z,39.13
2019-04-30T22:52:22.996Z,38.40
2019-04-30T22:57:29.752Z,40.23
2019-04-30T23:02:48.259Z,36.33
2019-04-30T23:07:54.359Z,31.50
2019-04-30T23:12:59.556Z,28.40
2019-04-30T23:18:05.285Z,30.00
2019-04-30T23:23:10.455Z,26.60
2019-04-30T23:28:17.040Z,27.33
2019-04-30T23:33:22.350Z,30.23
2019-04-30T23:38:27.535Z,30.20
2019-04-30T23:43:32.726Z,32.43
2019-04-30T23:48:38.951Z,34.40
2019-04-30T23:53:44.150Z,35.83
2019-04-30T23:58:49.562Z,39.40
